Time;durP1;ratioP1;P1;durP2;ratioP2;P2;SDS_P1;SDS_P2;PMS_P1;PMS_P2;Temp;Humidity;BMP_temperature;BMP_pressure;BME280_temperature;BME280_humidity;BME280_pressure;Samples;Min_cycle;Max_cycle;Signal;HPM_P1;HPM_P2
2022/03/12 00:01:27;;;;;;;1.65;0.50;;;;;;;23.79;14.38;101707.00;5054634;28;20063;-72
2022/03/12 00:03:54;;;;;;;0.47;0.47;;;;;;;23.80;14.36;101701.31;5054884;28;20255;-72
2022/03/12 00:06:22;;;;;;;0.32;0.32;;;;;;;23.78;14.37;101719.84;5054542;28;20028;-71
2022/03/12 00:08:48;;;;;;;0.50;0.50;;;;;;;23.80;14.27;101712.22;5054458;28;20120;-72
2022/03/12 00:11:18;;;;;;;0.35;0.35;;;;;;;23.79;14.37;101710.56;5054470;28;20049;-71
2022/03/12 00:13:43;;;;;;;0.60;0.50;;;;;;;23.73;14.33;101708.81;5054640;28;20029;-72
2022/03/12 00:16:13;;;;;;;0.43;0.43;;;;;;;23.80;14.47;101712.22;5054624;28;20036;-72
2022/03/12 00:18:42;;;;;;;0.43;0.43;;;;;;;23.77;14.33;101723.63;5054500;28;20036;-71
2022/03/12 00:21:12;;;;;;;0.50;0.50;;;;;;;23.77;14.40;101709.97;5054913;28;20048;-72
2022/03/12 00:23:37;;;;;;;0.40;0.40;;;;;;;23.77;14.27;101715.44;5036862;28;20073;-72
2022/03/12 00:26:03;;;;;;;0.60;0.60;;;;;;;23.81;14.30;101708.44;5054453;28;20044;-71
2022/03/12 00:28:28;;;;;;;0.40;0.40;;;;;;;23.79;14.33;101710.56;5036867;28;20491;-72
2022/03/12 00:30:54;;;;;;;0.50;0.50;;;;;;;23.76;14.47;101704.75;5054372;28;20460;-71
2022/03/12 00:33:20;;;;;;;0.50;0.50;;;;;;;23.77;14.38;101707.25;5054135;28;20029;-72
2022/03/12 00:35:47;;;;;;;0.40;0.40;;;;;;;23.76;14.17;101715.69;5054363;28;20425;-71
2022/03/12 00:38:14;;;;;;;0.50;0.50;;;;;;;23.72;14.32;101715.34;5054054;28;20025;-71
2022/03/12 00:40:39;;;;;;;0.43;0.43;;;;;;;23.76;14.15;101716.50;5054113;28;20032;-72
2022/03/12 00:43:04;;;;;;;0.50;0.50;;;;;;;23.75;14.29;101719.47;5054332;28;20028;-72
2022/03/12 00:45:30;;;;;;;0.52;0.40;;;;;;;23.73;14.35;101727.94;5054960;28;20033;-71
2022/03/12 00:47:55;;;;;;;0.40;0.40;;;;;;;23.75;14.22;101719.47;5054171;28;20025;-72
2022/03/12 00:50:21;;;;;;;0.60;0.60;;;;;;;23.67;14.27;101707.06;5053829;28;20427;-72
2022/03/12 00:52:46;;;;;;;0.50;0.50;;;;;;;23.73;14.02;101714.28;5053704;28;20028;-72
2022/03/12 00:55:13;;;;;;;1.35;0.57;;;;;;;23.72;14.28;101715.34;5054020;28;20017;-71
2022/03/12 00:57:38;;;;;;;0.45;0.45;;;;;;;23.70;14.09;101706.56;5053876;28;20052;-72
2022/03/12 01:00:04;;;;;;;0.60;0.60;;;;;;;23.71;14.23;101719.13;5053534;28;20463;-71
2022/03/12 01:02:30;;;;;;;0.43;0.43;;;;;;;23.70;14.28;101709.31;5053814;28;20345;-71
2022/03/12 01:04:55;;;;;;;0.60;0.60;;;;;;;23.71;13.95;101705.47;5053364;28;20032;-72
2022/03/12 01:07:20;;;;;;;0.47;0.47;;;;;;;23.72;13.74;101703.59;5053760;28;20021;-72
2022/03/12 01:09:46;;;;;;;0.50;0.50;;;;;;;23.71;13.76;101696.47;5035717;28;20387;-72
2022/03/12 01:12:11;;;;;;;0.60;0.60;;;;;;;23.72;13.83;101698.97;5053712;28;20025;-72
2022/03/12 01:14:38;;;;;;;0.50;0.50;;;;;;;23.71;13.83;101697.28;5053583;28;20104;-72
2022/03/12 01:17:04;;;;;;;0.40;0.40;;;;;;;23.69;13.63;101693.16;5053383;28;20036;-71
2022/03/12 01:19:35;;;;;;;0.50;0.50;;;;;;;23.68;13.80;101692.34;5054013;28;20024;-72
2022/03/12 01:22:05;;;;;;;0.50;0.50;;;;;;;23.67;13.70;101684.41;5053890;28;20032;-72
2022/03/12 01:24:30;;;;;;;0.50;0.50;;;;;;;23.70;13.53;101690.19;5053209;28;20053;-71
2022/03/12 01:26:56;;;;;;;0.40;0.40;;;;;;;23.70;13.42;101687.47;5053763;28;20021;-70
2022/03/12 01:29:22;;;;;;;0.60;0.60;;;;;;;23.68;13.56;101697.81;5053177;28;20404;-72
2022/03/12 01:31:47;;;;;;;0.50;0.50;;;;;;;23.70;13.60;101701.13;5053764;28;20029;-72
2022/03/12 01:34:13;;;;;;;0.50;0.50;;;;;;;23.68;13.52;101697.81;5053514;28;20032;-72
2022/03/12 01:36:38;;;;;;;0.50;0.50;;;;;;;23.68;13.49;101707.88;5053146;28;20480;-72
2022/03/12 01:39:04;;;;;;;0.60;0.60;;;;;;;23.67;13.77;101707.06;5053379;28;20039;-72
2022/03/12 01:41:30;;;;;;;0.60;0.60;;;;;;;23.62;13.55;101701.50;5035763;28;20490;-72
2022/03/12 01:43:57;;;;;;;0.50;0.50;;;;;;;23.68;13.64;101703.25;5053815;28;20021;-72
2022/03/12 01:46:32;;;;;;;0.50;0.50;;;;;;;23.69;13.53;101701.34;5053466;28;20100;-72
2022/03/12 01:48:59;;;;;;;0.50;0.50;;;;;;;23.67;13.48;101698.88;5053580;28;20451;-72
2022/03/12 01:51:27;;;;;;;0.50;0.50;;;;;;;23.68;13.59;101696.97;5054573;28;20036;-72
2022/03/12 01:53:53;;;;;;;0.47;0.47;;;;;;;23.66;13.66;101694.47;5053945;28;20192;-71
2022/03/12 01:56:19;;;;;;;0.40;0.40;;;;;;;23.65;13.50;101694.75;5053154;28;20114;-72
2022/03/12 01:58:46;;;;;;;0.57;0.57;;;;;;;23.65;13.74;101690.09;5053975;28;20104;-72
2022/03/12 02:01:12;;;;;;;0.45;0.45;;;;;;;23.65;13.79;101690.09;5053174;28;20051;-71
2022/03/12 02:03:37;;;;;;;0.50;0.50;;;;;;;23.62;13.53;101688.66;5053492;28;20456;-72
2022/03/12 02:06:03;;;;;;;0.57;0.57;;;;;;;23.65;13.73;101681.91;5052655;28;20484;-71
2022/03/12 02:08:28;;;;;;;0.40;0.40;;;;;;;23.65;13.51;101683.81;5053093;28;20123;-72
2022/03/12 02:10:57;;;;;;;0.50;0.50;;;;;;;23.67;13.53;101692.59;5052732;28;20436;-72
2022/03/12 02:13:24;;;;;;;0.40;0.40;;;;;;;23.65;13.23;101701.00;5053061;28;20155;-72
2022/03/12 02:15:51;;;;;;;0.60;0.60;;;;;;;23.46;13.20;101661.31;5053099;28;20035;-72
2022/03/12 02:18:16;;;;;;;0.50;0.50;;;;;;;23.65;13.24;101701.00;5055472;28;20028;-72
2022/03/12 02:20:42;;;;;;;0.50;0.50;;;;;;;23.63;13.22;101700.44;5056970;28;20491;-73
2022/03/12 02:23:07;;;;;;;0.68;0.50;;;;;;;23.63;13.09;101706.72;5056535;28;20053;-72
2022/03/12 02:25:33;;;;;;;0.50;0.50;;;;;;;23.62;13.30;101701.50;5056585;28;20029;-72
2022/03/12 02:28:00;;;;;;;0.60;0.60;;;;;;;23.63;13.28;101706.72;5056777;28;20033;-72
2022/03/12 02:30:39;;;;;;;0.60;0.60;;;;;;;23.61;13.21;101708.88;5056683;28;20067;-72
2022/03/12 02:33:04;;;;;;;0.70;0.70;;;;;;;23.62;12.92;101709.69;5056877;28;20025;-72
2022/03/12 02:35:35;;;;;;;0.60;0.60;;;;;;;23.63;12.90;101709.44;5056690;28;20108;-72
2022/03/12 02:38:04;;;;;;;0.57;0.57;;;;;;;23.63;13.01;101711.34;5057286;28;20017;-71
2022/03/12 02:40:30;;;;;;;0.40;0.40;;;;;;;23.60;12.89;101698.19;5057208;28;20067;-71
2022/03/12 02:42:56;;;;;;;0.43;0.43;;;;;;;23.58;12.98;101692.16;5056761;28;20481;-72
2022/03/12 02:45:22;;;;;;;0.40;0.40;;;;;;;23.59;12.85;101697.38;5056585;28;20475;-72
2022/03/12 02:47:48;;;;;;;0.43;0.43;;;;;;;23.60;12.72;101700.91;5056135;28;20086;-71
2022/03/12 02:50:14;;;;;;;0.65;0.60;;;;;;;23.59;12.85;101700.09;5056694;28;20383;-71
2022/03/12 02:52:41;;;;;;;0.43;0.43;;;;;;;23.59;12.91;101704.72;5056094;28;20367;-72
2022/03/12 02:55:17;;;;;;;0.50;0.50;;;;;;;23.55;12.73;101698.91;5056067;28;20048;-72
2022/03/12 02:57:46;;;;;;;0.43;0.43;;;;;;;23.59;12.88;101704.72;5056612;28;20024;-72
2022/03/12 03:00:12;;;;;;;0.50;0.50;;;;;;;23.58;12.82;101713.97;5056104;28;20083;-72
2022/03/12 03:02:41;;;;;;;0.40;0.40;;;;;;;23.59;12.68;101710.16;5055932;28;20024;-71
2022/03/12 03:05:13;;;;;;;0.50;0.45;;;;;;;23.59;12.70;101712.91;5056127;28;20032;-71
2022/03/12 03:07:39;;;;;;;0.50;0.50;;;;;;;23.53;12.65;101700.25;5055829;28;20104;-71
2022/03/12 03:10:05;;;;;;;0.40;0.40;;;;;;;23.58;12.65;101703.88;5056678;28;20029;-71
2022/03/12 03:12:31;;;;;;;0.40;0.40;;;;;;;23.59;12.76;101699.25;5056222;28;20075;-71
2022/03/12 03:14:56;;;;;;;0.60;0.60;;;;;;;23.56;12.60;101699.72;5038232;28;20021;-71
2022/03/12 03:17:22;;;;;;;0.57;0.57;;;;;;;23.57;12.57;101698.66;5056479;28;20367;-71
2022/03/12 03:19:48;;;;;;;0.60;0.60;;;;;;;23.59;12.59;101701.97;5055676;28;20021;-72
2022/03/12 03:22:13;;;;;;;0.60;0.60;;;;;;;23.58;12.51;101703.88;5055655;28;20036;-71
2022/03/12 03:24:39;;;;;;;0.50;0.50;;;;;;;23.52;12.59;101693.13;5055376;28;20037;-71
2022/03/12 03:27:04;;;;;;;0.60;0.60;;;;;;;23.56;12.46;101695.13;5055612;28;20055;-71
2022/03/12 03:29:31;;;;;;;0.50;0.50;;;;;;;23.54;12.75;101696.41;5054695;28;20079;-72
2022/03/12 03:31:58;;;;;;;0.60;0.60;;;;;;;23.54;12.39;101700.00;5055804;28;20075;-72
2022/03/12 03:34:24;;;;;;;0.50;0.50;;;;;;;23.54;12.57;101701.88;5056020;28;20048;-72
2022/03/12 03:36:50;;;;;;;0.60;0.60;;;;;;;23.54;12.62;101700.00;5055684;28;20384;-72
2022/03/12 03:39:15;;;;;;;0.50;0.50;;;;;;;23.54;12.53;101701.88;5037604;28;20516;-71
2022/03/12 03:41:41;;;;;;;0.50;0.50;;;;;;;23.43;12.39;101685.31;5055331;28;20025;-72
2022/03/12 03:44:07;;;;;;;0.63;0.63;;;;;;;23.55;12.54;101703.53;5056057;28;20083;-72
2022/03/12 03:46:32;;;;;;;0.60;0.60;;;;;;;23.54;12.50;101707.34;5055358;28;20040;-72
2022/03/12 03:48:58;;;;;;;0.50;0.50;;;;;;;23.49;12.27;101697.16;5056092;28;20025;-71
2022/03/12 03:51:23;;;;;;;0.55;0.55;;;;;;;23.50;12.14;101690.63;5056115;28;20169;-72
2022/03/12 03:53:49;;;;;;;0.70;0.70;;;;;;;23.53;12.29;101706.50;5055709;28;20464;-72
2022/03/12 03:56:17;;;;;;;0.60;0.60;;;;;;;23.53;12.20;101700.25;5055050;28;20021;-72
2022/03/12 03:58:43;;;;;;;0.70;0.70;;;;;;;23.53;12.34;101697.50;5055351;28;20037;-71
2022/03/12 04:01:11;;;;;;;0.55;0.55;;;;;;;23.49;12.27;101690.88;5054932;28;20021;-72
2022/03/12 04:03:37;;;;;;;0.60;0.60;;;;;;;23.49;12.43;101696.31;5055484;28;20125;-72
2022/03/12 04:06:04;;;;;;;0.45;0.45;;;;;;;23.44;12.37;101692.44;5055097;28;20024;-72
2022/03/12 04:08:30;;;;;;;0.60;0.60;;;;;;;23.50;12.34;101701.53;5054956;28;20021;-71
2022/03/12 04:10:55;;;;;;;0.60;0.60;;;;;;;23.51;12.11;101696.91;5055286;28;20021;-72
2022/03/12 04:13:21;;;;;;;0.40;0.40;;;;;;;23.49;12.00;101699.03;5055169;28;20086;-72
2022/03/12 04:15:47;;;;;;;0.60;0.60;;;;;;;23.51;11.90;101702.34;5054916;28;20029;-72
2022/03/12 04:18:15;;;;;;;0.57;0.57;;;;;;;23.50;11.94;101701.53;5055315;28;20065;-71
2022/03/12 04:20:42;;;;;;;0.50;0.50;;;;;;;23.49;11.90;101699.03;5054598;28;20447;-72
2022/03/12 04:23:08;;;;;;;0.63;0.63;;;;;;;23.49;12.08;101704.50;5054753;28;20041;-71
2022/03/12 04:25:35;;;;;;;0.52;0.52;;;;;;;23.48;11.91;101695.50;5054530;28;20033;-71
2022/03/12 04:28:01;;;;;;;0.57;0.57;;;;;;;23.48;11.92;101702.88;5054678;28;20032;-71
2022/03/12 04:30:28;;;;;;;0.70;0.70;;;;;;;23.49;11.63;101715.41;5054610;28;20017;-72
2022/03/12 04:32:54;;;;;;;0.55;0.55;;;;;;;23.44;11.65;101708.78;5054107;28;20463;-72
2022/03/12 04:35:20;;;;;;;0.60;0.60;;;;;;;23.37;11.70;101697.19;5054479;28;20017;-72
2022/03/12 04:37:45;;;;;;;0.50;0.50;;;;;;;23.48;11.53;101719.22;5054193;28;20035;-72
2022/03/12 04:40:15;;;;;;;0.55;0.55;;;;;;;23.47;11.81;101720.28;5053932;28;20070;-71
2022/03/12 04:42:44;;;;;;;0.50;0.50;;;;;;;23.49;11.64;101720.88;5054437;28;20067;-71
2022/03/12 04:45:15;;;;;;;0.40;0.40;;;;;;;23.48;11.67;101713.78;5053987;28;20051;-71
2022/03/12 04:47:42;;;;;;;0.60;0.60;;;;;;;23.47;11.75;101717.56;5036608;28;20045;-72
2022/03/12 04:50:08;;;;;;;0.50;0.50;;;;;;;23.46;11.72;101715.91;5054558;28;20509;-72
2022/03/12 04:52:34;;;;;;;0.70;0.70;;;;;;;23.46;11.39;101716.75;5053846;28;20586;-72
2022/03/12 04:55:05;;;;;;;0.68;0.68;;;;;;;23.44;11.40;101719.72;5054083;28;20036;-71
2022/03/12 04:57:30;;;;;;;0.73;0.73;;;;;;;23.44;11.33;101714.25;5020452;28;20530;-72
2022/03/12 04:59:55;;;;;;;0.60;0.60;;;;;;;23.42;11.35;101710.94;5054141;28;20033;-71
2022/03/12 05:02:21;;;;;;;0.57;0.57;;;;;;;23.42;11.40;101716.41;5054259;28;20021;-72
2022/03/12 05:04:46;;;;;;;0.57;0.57;;;;;;;23.43;11.45;101717.22;5054111;28;20499;-72
2022/03/12 05:07:14;;;;;;;0.88;0.80;;;;;;;23.43;11.26;101711.75;5054389;28;20033;-71
2022/03/12 05:09:39;;;;;;;0.52;0.52;;;;;;;23.43;11.22;101723.50;5053821;28;20020;-71
2022/03/12 05:12:06;;;;;;;0.60;0.60;;;;;;;23.44;11.36;101718.88;5053975;28;20033;-71
2022/03/12 05:14:34;;;;;;;0.60;0.50;;;;;;;23.43;11.28;101728.13;5053877;28;20036;-71
2022/03/12 05:17:04;;;;;;;0.75;0.70;;;;;;;23.42;11.15;101721.00;5054074;28;20432;-72
2022/03/12 05:19:30;;;;;;;0.57;0.57;;;;;;;23.44;11.22;101730.63;5054322;28;20036;-71
2022/03/12 05:21:55;;;;;;;0.60;0.60;;;;;;;23.44;11.23;101735.25;5054060;28;20375;-71
2022/03/12 05:24:20;;;;;;;0.50;0.50;;;;;;;23.43;11.26;101736.31;5053424;28;20064;-71
2022/03/12 05:26:46;;;;;;;0.60;0.60;;;;;;;23.43;11.16;101734.41;5053624;28;20375;-71
2022/03/12 05:29:11;;;;;;;0.52;0.50;;;;;;;23.43;11.40;101737.13;5053937;28;20040;-71
2022/03/12 05:31:37;;;;;;;0.70;0.70;;;;;;;23.41;11.10;101739.28;5054061;28;20021;-71
2022/03/12 05:34:02;;;;;;;0.50;0.50;;;;;;;23.42;11.25;101740.09;5053534;28;20029;-71
2022/03/12 05:36:28;;;;;;;0.50;0.50;;;;;;;23.40;11.36;101729.47;5053952;28;20021;-71
2022/03/12 05:38:53;;;;;;;0.70;0.70;;;;;;;23.40;11.15;101740.38;5053649;28;20032;-71
2022/03/12 05:41:18;;;;;;;0.52;0.52;;;;;;;23.43;11.18;101739.88;5053812;28;20087;-71
2022/03/12 05:43:46;;;;;;;0.60;0.60;;;;;;;23.39;11.22;101744.16;5053090;28;20468;-70
2022/03/12 05:46:15;;;;;;;0.43;0.43;;;;;;;23.40;11.25;101748.56;5053470;28;20029;-70
2022/03/12 05:48:41;;;;;;;0.40;0.40;;;;;;;23.40;11.32;101744.97;5053621;28;20032;-71
2022/03/12 05:51:09;;;;;;;0.50;0.50;;;;;;;23.41;11.28;101736.56;5053579;28;20033;-71
2022/03/12 05:53:36;;;;;;;0.68;0.63;;;;;;;23.40;11.34;101739.53;5056272;28;20490;-71
2022/03/12 05:56:02;;;;;;;0.50;0.50;;;;;;;23.37;11.41;101738.13;5057313;28;20032;-72
2022/03/12 05:58:28;;;;;;;0.52;0.52;;;;;;;23.36;11.27;101736.44;5057396;28;20029;-72
2022/03/12 06:00:55;;;;;;;0.60;0.60;;;;;;;23.36;11.32;101746.53;5057714;28;20025;-71
2022/03/12 06:03:21;;;;;;;0.60;0.60;;;;;;;23.38;11.34;101742.47;5057411;28;20083;-71
2022/03/12 06:05:54;;;;;;;0.50;0.50;;;;;;;23.39;11.45;101741.44;5057392;28;20422;-71
2022/03/12 06:08:22;;;;;;;0.50;0.50;;;;;;;23.38;11.32;101738.94;5057464;28;20028;-72
2022/03/12 06:10:50;;;;;;;0.70;0.70;;;;;;;23.39;11.26;101738.69;5057244;28;20110;-71
2022/03/12 06:13:16;;;;;;;0.73;0.73;;;;;;;23.38;11.32;101739.75;5057300;28;20037;-72
2022/03/12 06:15:41;;;;;;;0.60;0.60;;;;;;;23.38;11.23;101734.31;5057127;28;20400;-72
2022/03/12 06:18:08;;;;;;;0.40;0.40;;;;;;;23.39;11.48;101733.25;5057027;28;20040;-72
2022/03/12 06:20:37;;;;;;;0.60;0.60;;;;;;;23.38;11.65;101739.75;5056978;28;20033;-72
2022/03/12 06:23:02;;;;;;;0.60;0.60;;;;;;;23.39;11.50;101741.44;5056697;28;20028;-72
2022/03/12 06:25:29;;;;;;;0.60;0.60;;;;;;;23.36;11.46;101739.19;5057403;28;20036;-71
2022/03/12 06:27:54;;;;;;;0.70;0.70;;;;;;;23.40;11.62;101743.09;5057300;28;20039;-72
2022/03/12 06:30:25;;;;;;;0.70;0.70;;;;;;;23.40;11.40;101743.09;5056468;28;20021;-72
2022/03/12 06:32:50;;;;;;;0.60;0.60;;;;;;;23.40;11.67;101745.81;5056951;28;20029;-72
2022/03/12 06:35:16;;;;;;;0.60;0.60;;;;;;;23.32;11.64;101732.56;5056711;28;20026;-71
2022/03/12 06:37:42;;;;;;;0.77;0.77;;;;;;;23.42;11.60;101740.94;5056927;28;20499;-71
2022/03/12 06:40:09;;;;;;;0.60;0.60;;;;;;;23.41;11.80;101744.75;5056804;28;20028;-71
2022/03/12 06:42:35;;;;;;;0.65;0.65;;;;;;;23.41;11.63;101747.47;5057206;28;20099;-72
2022/03/12 06:45:01;;;;;;;0.55;0.55;;;;;;;23.42;11.76;101748.28;5056162;28;20143;-71
2022/03/12 06:47:28;;;;;;;0.70;0.70;;;;;;;23.42;11.68;101748.28;5055999;28;20025;-72
2022/03/12 06:49:55;;;;;;;0.50;0.50;;;;;;;23.42;11.93;101749.13;5056728;28;20031;-71
2022/03/12 06:52:20;;;;;;;0.60;0.60;;;;;;;23.44;11.94;101757.09;5056524;28;20060;-72
2022/03/12 06:54:45;;;;;;;0.65;0.60;;;;;;;23.45;12.04;101753.25;5056451;28;20349;-72
2022/03/12 06:57:11;;;;;;;0.52;0.52;;;;;;;23.47;12.15;101753.03;5056114;28;20029;-71
2022/03/12 06:59:37;;;;;;;0.60;0.60;;;;;;;23.46;12.24;101754.94;5056047;28;20025;-72
2022/03/12 07:02:02;;;;;;;0.70;0.60;;;;;;;23.44;12.44;101747.00;5056432;28;20021;-72
2022/03/12 07:04:27;;;;;;;0.68;0.68;;;;;;;23.49;12.31;101756.34;5056102;28;20052;-71
2022/03/12 07:06:53;;;;;;;0.50;0.50;;;;;;;23.49;12.39;101761.78;5038255;28;20025;-72
2022/03/12 07:09:18;;;;;;;0.50;0.50;;;;;;;23.49;12.58;101761.78;5055878;28;20032;-72
2022/03/12 07:11:44;;;;;;;0.60;0.60;;;;;;;23.50;12.32;101764.28;5056202;28;20033;-70
2022/03/12 07:14:10;;;;;;;0.50;0.50;;;;;;;23.44;12.55;101752.44;5056240;28;20025;-72
2022/03/12 07:16:35;;;;;;;0.70;0.70;;;;;;;23.35;12.61;101740.25;5056177;28;20471;-71
2022/03/12 07:19:01;;;;;;;0.70;0.70;;;;;;;23.53;12.84;101765.72;5056347;28;20464;-71
2022/03/12 07:21:27;;;;;;;0.60;0.60;;;;;;;23.51;12.94;101763.22;5055789;28;20434;-72
2022/03/12 07:23:53;;;;;;;0.60;0.60;;;;;;;23.52;12.89;101770.31;5038019;28;20073;-71
2022/03/12 07:26:20;;;;;;;0.60;0.60;;;;;;;23.54;12.93;101775.53;5055812;28;20403;-72
2022/03/12 07:28:46;;;;;;;0.50;0.50;;;;;;;23.50;13.17;101771.66;5055731;28;20029;-72
2022/03/12 07:31:12;;;;;;;0.55;0.52;;;;;;;23.54;13.26;101772.81;5038143;28;20028;-71
2022/03/12 07:33:37;;;;;;;0.55;0.55;;;;;;;23.54;13.15;101778.28;5055876;28;20017;-71
2022/03/12 07:36:04;;;;;;;0.40;0.40;;;;;;;23.56;13.18;101765.22;5055962;28;20047;-72
2022/03/12 07:38:29;;;;;;;0.60;0.60;;;;;;;23.55;13.48;101769.03;5055838;28;20024;-72
2022/03/12 07:40:54;;;;;;;0.50;0.50;;;;;;;23.54;13.37;101765.47;5055250;28;20391;-71
2022/03/12 07:43:20;;;;;;;0.50;0.50;;;;;;;23.51;13.45;101762.38;5037280;28;20029;-70
2022/03/12 07:45:45;;;;;;;0.50;0.50;;;;;;;23.57;13.49;101769.63;5037568;28;20029;-72
2022/03/12 07:48:12;;;;;;;0.60;0.60;;;;;;;23.58;13.50;101779.47;5055801;28;20032;-72
2022/03/12 07:50:37;;;;;;;0.50;0.50;;;;;;;23.58;13.55;101780.28;5055881;28;20033;-71
2022/03/12 07:53:03;;;;;;;0.50;0.50;;;;;;;23.58;13.65;101771.28;5055818;28;20078;-71
2022/03/12 07:55:28;;;;;;;0.40;0.40;;;;;;;23.55;13.72;101769.03;5056286;28;20029;-72
2022/03/12 07:57:53;;;;;;;0.60;0.60;;;;;;;23.58;13.83;101777.56;5055493;28;20020;-72
2022/03/12 08:00:19;;;;;;;0.60;0.60;;;;;;;23.58;13.82;101779.47;5055126;28;20028;-72
2022/03/12 08:02:46;;;;;;;0.73;0.60;;;;;;;23.59;14.05;101775.66;5054979;28;20463;-71
2022/03/12 08:05:13;;;;;;;0.50;0.50;;;;;;;23.60;13.87;101771.88;5037351;28;20079;-72
2022/03/12 08:07:39;;;;;;;0.50;0.50;;;;;;;23.58;13.95;101766.66;5054479;28;20041;-71
2022/03/12 08:10:05;;;;;;;0.40;0.40;;;;;;;23.60;13.97;101767.22;5054742;28;20029;-72
2022/03/12 08:12:34;;;;;;;0.40;0.40;;;;;;;23.61;14.11;101768.06;5054875;28;20383;-72
2022/03/12 08:15:01;;;;;;;0.60;0.60;;;;;;;23.62;14.05;101769.72;5055083;28;20060;-71
2022/03/12 08:17:26;;;;;;;0.43;0.43;;;;;;;23.62;14.18;101769.72;5055040;28;20020;-71
2022/03/12 08:19:52;;;;;;;0.65;0.65;;;;;;;23.61;14.03;101773.50;5054641;28;20474;-72
2022/03/12 08:22:18;;;;;;;0.55;0.55;;;;;;;23.55;14.22;101753.47;5054843;28;20467;-71
2022/03/12 08:24:43;;;;;;;0.60;0.60;;;;;;;23.64;14.24;101773.03;5054768;28;20053;-72
2022/03/12 08:27:09;;;;;;;0.60;0.60;;;;;;;23.63;14.34;101772.22;5054555;28;20025;-72
2022/03/12 08:29:34;;;;;;;0.50;0.50;;;;;;;23.64;14.23;101773.03;5054205;28;20017;-72
2022/03/12 08:32:00;;;;;;;0.50;0.50;;;;;;;23.63;14.29;101772.22;5054133;28;20075;-72
2022/03/12 08:34:26;;;;;;;0.55;0.55;;;;;;;23.65;14.47;101771.97;5054181;28;20029;-71
2022/03/12 08:36:51;;;;;;;0.50;0.50;;;;;;;23.65;14.67;101784.81;5054607;28;20024;-71
2022/03/12 08:39:17;;;;;;;0.60;0.60;;;;;;;23.68;14.63;101776.09;5054253;28;20120;-71
2022/03/12 08:41:43;;;;;;;0.60;0.60;;;;;;;23.70;14.56;101783.00;5054274;28;20668;-72
2022/03/12 08:44:09;;;;;;;0.57;0.50;;;;;;;23.68;14.62;101785.13;5054047;28;20385;-72
2022/03/12 08:46:35;;;;;;;0.73;0.73;;;;;;;23.68;14.71;101785.13;5036402;28;20029;-71
2022/03/12 08:49:01;;;;;;;0.75;0.60;;;;;;;23.69;14.58;101785.97;5054253;28;20032;-71
2022/03/12 08:51:27;;;;;;;0.88;0.50;;;;;;;23.72;14.74;101780.03;5053812;28;20036;-71
2022/03/12 08:53:52;;;;;;;0.68;0.50;;;;;;;23.73;14.47;101781.66;5054163;28;20021;-71
2022/03/12 08:56:18;;;;;;;0.65;0.52;;;;;;;23.70;14.58;101774.81;5053816;28;20371;-71
2022/03/12 08:58:43;;;;;;;0.50;0.50;;;;;;;23.74;14.80;101784.16;5053956;28;20028;-71
2022/03/12 09:01:09;;;;;;;0.52;0.52;;;;;;;23.74;14.53;101780.59;5053663;28;20079;-72
2022/03/12 09:03:35;;;;;;;0.50;0.50;;;;;;;23.74;14.60;101780.59;5053949;28;20033;-72
2022/03/12 09:06:02;;;;;;;0.60;0.57;;;;;;;23.77;14.87;101774.66;5053999;28;20091;-71
2022/03/12 09:08:27;;;;;;;0.47;0.47;;;;;;;23.78;14.80;101774.44;5053415;28;20090;-71
2022/03/12 09:10:55;;;;;;;0.40;0.40;;;;;;;23.62;14.79;101756.06;5054420;28;20037;-71
2022/03/12 09:13:21;;;;;;;0.50;0.50;;;;;;;23.76;14.91;101781.19;5054873;28;20044;-71
2022/03/12 09:15:46;;;;;;;0.60;0.60;;;;;;;23.79;14.78;101778.81;5053449;28;20383;-72
2022/03/12 09:18:12;;;;;;;0.65;0.65;;;;;;;23.80;14.98;101775.00;5053834;28;20021;-71
2022/03/12 09:20:43;;;;;;;0.50;0.50;;;;;;;23.78;14.88;101779.88;5053724;28;20128;-71
2022/03/12 09:23:09;;;;;;;0.50;0.50;;;;;;;23.77;14.85;101770.03;5053779;28;20049;-71
2022/03/12 09:25:34;;;;;;;0.75;0.57;;;;;;;23.81;14.99;101779.41;5053539;28;20482;-71
2022/03/12 09:28:00;;;;;;;0.50;0.50;;;;;;;23.80;14.84;101780.47;5052740;28;20017;-71
2022/03/12 09:30:26;;;;;;;0.55;0.55;;;;;;;23.80;15.11;101777.75;5035945;28;20048;-72
2022/03/12 09:32:51;;;;;;;0.50;0.50;;;;;;;23.84;14.99;101777.28;5053916;28;20036;-72
2022/03/12 09:35:17;;;;;;;0.40;0.40;;;;;;;23.84;14.98;101771.84;5053700;28;20032;-72
2022/03/12 09:37:42;;;;;;;0.70;0.50;;;;;;;23.85;14.97;101777.03;5053654;28;20029;-72
2022/03/12 09:40:08;;;;;;;0.40;0.40;;;;;;;23.85;14.80;101777.03;5053544;28;20028;-71
2022/03/12 09:42:34;;;;;;;0.40;0.40;;;;;;;23.84;14.80;101772.66;5053411;28;20056;-71
2022/03/12 09:44:59;;;;;;;0.50;0.50;;;;;;;23.87;14.78;101771.31;5053940;28;20468;-71
2022/03/12 09:47:25;;;;;;;0.50;0.50;;;;;;;23.87;14.98;101776.78;5053124;28;20017;-71
2022/03/12 09:49:50;;;;;;;0.40;0.40;;;;;;;23.85;14.96;101774.28;5053662;28;20021;-72
2022/03/12 09:52:17;;;;;;;0.55;0.55;;;;;;;23.86;14.77;101772.41;5053336;28;20462;-71
2022/03/12 09:54:43;;;;;;;0.40;0.40;;;;;;;23.87;15.02;101771.31;5053117;28;20148;-72
2022/03/12 09:57:10;;;;;;;0.40;0.40;;;;;;;23.81;15.02;101752.13;5053302;28;20021;-72
2022/03/12 09:59:35;;;;;;;0.60;0.55;;;;;;;23.87;14.88;101760.41;5053746;28;20022;-71
2022/03/12 10:02:01;;;;;;;0.85;0.60;;;;;;;23.87;14.98;101755.78;5035363;28;20506;-72
2022/03/12 10:04:28;;;;;;;0.47;0.40;;;;;;;23.69;15.01;101729.47;5052898;28;20204;-71
2022/03/12 10:06:54;;;;;;;0.30;0.30;;;;;;;23.89;14.90;101758.28;5053100;28;20033;-71
2022/03/12 10:09:19;;;;;;;0.55;0.55;;;;;;;23.89;14.92;101758.28;5053313;28;20483;-71
2022/03/12 10:11:45;;;;;;;0.57;0.57;;;;;;;23.91;14.76;101756.13;5054213;28;20033;-72
2022/03/12 10:14:11;;;;;;;0.40;0.40;;;;;;;23.89;14.91;101753.66;5053155;28;20036;-71
2022/03/12 10:16:37;;;;;;;0.68;0.60;;;;;;;23.89;15.14;101755.56;5053219;28;20025;-71
2022/03/12 10:19:02;;;;;;;0.40;0.40;;;;;;;23.91;15.10;101756.13;5053126;28;20032;-71
2022/03/12 10:21:28;;;;;;;0.45;0.45;;;;;;;23.81;14.90;101738.47;5052899;28;20044;-72
2022/03/12 10:23:53;;;;;;;0.50;0.50;;;;;;;23.91;14.76;101756.13;5053001;28;20517;-72
2022/03/12 10:26:19;;;;;;;0.47;0.47;;;;;;;23.90;15.13;101758.00;5052950;28;20033;-71
2022/03/12 10:28:44;;;;;;;0.50;0.50;;;;;;;23.89;14.99;101747.38;5052913;28;20143;-71
2022/03/12 10:31:12;;;;;;;0.50;0.50;;;;;;;23.91;15.08;101756.13;5052507;28;20494;-71
2022/03/12 10:33:37;;;;;;;0.40;0.40;;;;;;;23.90;14.98;101759.94;5035393;28;20029;-71
2022/03/12 10:36:13;;;;;;;0.50;0.50;;;;;;;23.91;15.02;101751.50;5052973;28;20430;-71
2022/03/12 10:38:43;;;;;;;0.35;0.35;;;;;;;23.88;14.77;101751.97;5055072;28;20368;-71
2022/03/12 10:41:09;;;;;;;0.40;0.40;;;;;;;23.88;14.81;101751.97;5056373;28;20024;-72
2022/03/12 10:43:47;;;;;;;0.40;0.40;;;;;;;23.90;15.04;101746.28;5056570;28;20021;-71
2022/03/12 10:46:19;;;;;;;0.50;0.50;;;;;;;23.88;14.77;101746.50;5056655;28;20049;-72
2022/03/12 10:48:45;;;;;;;0.73;0.60;;;;;;;23.87;14.83;101750.34;5056189;28;20047;-72
2022/03/12 10:51:11;;;;;;;0.40;0.40;;;;;;;23.87;14.96;101744.03;5056377;28;20039;-71
2022/03/12 10:53:36;;;;;;;0.50;0.50;;;;;;;23.88;14.98;101745.69;5056527;28;20021;-72
2022/03/12 10:56:05;;;;;;;0.40;0.40;;;;;;;23.86;14.95;101742.38;5056560;28;20048;-72
2022/03/12 10:58:33;;;;;;;0.40;0.40;;;;;;;23.85;15.02;101741.53;5056015;28;20444;-72
2022/03/12 11:00:59;;;;;;;0.55;0.55;;;;;;;23.85;15.15;101744.25;5056553;28;20467;-71
2022/03/12 11:03:27;;;;;;;0.40;0.40;;;;;;;23.83;15.05;101742.88;5056076;28;20102;-71
2022/03/12 11:05:54;;;;;;;0.50;0.50;;;;;;;23.81;14.92;101746.66;5056771;28;20021;-71
2022/03/12 11:08:23;;;;;;;0.55;0.55;;;;;;;23.84;15.04;101755.44;5056270;28;20070;-71
2022/03/12 11:10:57;;;;;;;0.40;0.40;;;;;;;23.84;14.96;101752.72;5056680;28;20069;-71
2022/03/12 11:16:24;;;;;;;0.50;0.50;;;;;;;23.84;14.91;101755.44;5056655;28;20036;-71
2022/03/12 11:18:52;;;;;;;0.50;0.50;;;;;;;23.84;14.78;101750.00;5056435;28;20037;-71
2022/03/12 11:21:26;;;;;;;0.40;0.40;;;;;;;23.83;14.95;101753.78;5055962;28;20021;-72
2022/03/12 11:23:51;;;;;;;0.82;0.57;;;;;;;23.80;15.00;101744.97;5055398;28;20045;-72